cinemafrontier.net alexa rank chart, cinemafrontier.net alexa rank daily changes

cinemafrontier.net alexa rank chart, cinemafrontier.net alexa rank daily changes

cinemafrontier.net
Actual rank:
412 042

RANK HISTORY

Date Rank Diff
2017/06/24 412 042 -336
2017/06/23 412 378 -26 861
2017/06/22 439 239 +5 896
2017/06/21 433 343 +932
2017/06/20 432 411 -1 733
2017/06/19 434 144 -1 746
2017/06/18 435 890 -5 884
2017/06/17 441 774 -630
2017/06/16 442 404 +1 518
2017/06/15 440 886 +1 694
2017/06/14 439 192 -3 504
2017/06/13 442 696 -1 619
2017/06/12 444 315 -2 226
2017/06/11 446 541 -592
2017/06/10 447 133 -34 679
2017/06/09 481 812 +8 965
2017/06/08 472 847 +5 067
2017/06/07 467 780 +70
2017/06/06 467 710 -1 513
2017/06/05 469 223 -2 027
2017/06/04 471 250 -768
2017/06/03 472 018 +34 697
2017/06/02 437 321 -108 114
2017/06/01 545 435 -62 452
2017/05/31 607 887 +146 528
2017/05/30 461 359 -51 173
2017/05/29 512 532 -2 155
2017/05/28 514 687 +41 405
2017/05/27 473 282 -42 508
2017/05/26 515 790 +42 082
2017/05/25 473 708 -46 563
2017/05/24 520 271 +2 285
2017/05/23 517 986 +57 302
2017/05/22 460 684 -57 364
2017/05/21 518 048 +45 975
2017/05/20 472 073 -270
2017/05/19 472 343 +210
2017/05/18 472 133 +47 056
2017/05/17 425 077 +1 875
2017/05/16 423 202 +34 890
2017/05/15 388 312 +53 051
2017/05/14 335 261 -508
2017/05/13 335 769 +54 719
2017/05/12 281 050 +14 459
2017/05/11 266 591 +611
2017/05/10 265 980 +17 052
2017/05/09 248 928 -2 396
2017/05/08 251 324 -1 651
2017/05/07 252 975 +10 778
2017/05/06 242 197 -260
2017/05/05 242 457 -75
2017/05/04 242 532 +623
2017/05/03 241 909 +1 953
2017/05/02 239 956 +14 657
2017/05/01 225 299 -41 457
2017/04/30 266 756 +22 663
2017/04/29 244 093 +163
2017/04/28 243 930 +2 469
2017/04/27 241 461 +584
2017/04/26 240 877 -8 249
2017/04/25 249 126

WIDGET FOR YOUR SITE

DOMAINS WITH THE NEAREST RANK

Domain Rank
boobgrowth.tumblr.com 412 037
scaits.net 412 038
sfbayview.com 412 039
bgitechsolutions.com 412 040
visiotechsecurity.com 412 041
cinemafrontier.net 412 042
fikihkontemporer.com 412 043
onlineadmissionubtec.org.in 412 044
akviloncenter.ru 412 045
gasofac.com.mx 412 046
diet-insider.com 412 047

DOMAINS WITH THE NEAREST RANK BY TLD .net

Domain Rank
xxxasiansex.net 412 015
ibudanbalita.net 412 017
readytowatch.net 412 021
oldskull.net 412 027
scaits.net 412 038
cinemafrontier.net 412 042
sexinfilms.net 412 051
bardweb.net 412 055
hotnudewomen.net 412 064
glico-club.net 412 110
goodmans.net 412 139